sensor_id;sensor_type;location;lat;lon;timestamp;P1;durP1;ratioP1;P2;durP2;ratioP2
44428;SDS011;30134;47.866;-4.222;2023-05-07T00:00:47;3.13;;;1.85;;
44428;SDS011;30134;47.866;-4.222;2023-05-07T00:03:14;3.63;;;1.70;;
44428;SDS011;30134;47.866;-4.222;2023-05-07T00:05:40;2.45;;;1.85;;
44428;SDS011;30134;47.866;-4.222;2023-05-07T00:08:06;2.33;;;1.70;;
44428;SDS011;30134;47.866;-4.222;2023-05-07T00:10:32;2.47;;;1.60;;
44428;SDS011;30134;47.866;-4.222;2023-05-07T00:12:58;2.13;;;1.50;;
44428;SDS011;30134;47.866;-4.222;2023-05-07T00:15:25;2.10;;;1.67;;
44428;SDS011;30134;47.866;-4.222;2023-05-07T00:17:51;3.00;;;1.98;;
44428;SDS011;30134;47.866;-4.222;2023-05-07T00:20:18;2.03;;;1.42;;
44428;SDS011;30134;47.866;-4.222;2023-05-07T00:22:44;2.63;;;1.67;;
44428;SDS011;30134;47.866;-4.222;2023-05-07T00:25:10;2.50;;;1.58;;
44428;SDS011;30134;47.866;-4.222;2023-05-07T00:27:36;3.40;;;1.85;;
44428;SDS011;30134;47.866;-4.222;2023-05-07T00:30:02;2.45;;;1.80;;
44428;SDS011;30134;47.866;-4.222;2023-05-07T00:32:28;2.33;;;1.75;;
44428;SDS011;30134;47.866;-4.222;2023-05-07T00:34:54;2.50;;;1.63;;
44428;SDS011;30134;47.866;-4.222;2023-05-07T00:37:21;2.30;;;1.80;;
44428;SDS011;30134;47.866;-4.222;2023-05-07T00:39:47;1.92;;;1.45;;
44428;SDS011;30134;47.866;-4.222;2023-05-07T00:42:13;2.22;;;1.65;;
44428;SDS011;30134;47.866;-4.222;2023-05-07T00:44:40;2.17;;;1.50;;
44428;SDS011;30134;47.866;-4.222;2023-05-07T00:47:06;2.35;;;1.50;;
44428;SDS011;30134;47.866;-4.222;2023-05-07T00:49:37;1.58;;;1.33;;
44428;SDS011;30134;47.866;-4.222;2023-05-07T00:52:07;2.47;;;1.60;;
44428;SDS011;30134;47.866;-4.222;2023-05-07T00:54:34;2.15;;;1.70;;
44428;SDS011;30134;47.866;-4.222;2023-05-07T00:57:01;1.83;;;1.40;;
44428;SDS011;30134;47.866;-4.222;2023-05-07T00:59:29;2.83;;;1.70;;
44428;SDS011;30134;47.866;-4.222;2023-05-07T01:01:59;1.85;;;1.40;;
44428;SDS011;30134;47.866;-4.222;2023-05-07T01:04:25;1.77;;;1.50;;
44428;SDS011;30134;47.866;-4.222;2023-05-07T01:06:52;3.53;;;1.45;;
44428;SDS011;30134;47.866;-4.222;2023-05-07T01:09:21;2.30;;;1.60;;
44428;SDS011;30134;47.866;-4.222;2023-05-07T01:11:49;2.22;;;1.40;;
44428;SDS011;30134;47.866;-4.222;2023-05-07T01:14:16;1.73;;;1.20;;
44428;SDS011;30134;47.866;-4.222;2023-05-07T01:16:43;3.53;;;2.03;;
44428;SDS011;30134;47.866;-4.222;2023-05-07T01:19:09;2.25;;;1.70;;
44428;SDS011;30134;47.866;-4.222;2023-05-07T01:21:39;1.83;;;1.40;;
44428;SDS011;30134;47.866;-4.222;2023-05-07T01:24:11;1.85;;;1.27;;
44428;SDS011;30134;47.866;-4.222;2023-05-07T01:26:38;2.10;;;1.38;;
44428;SDS011;30134;47.866;-4.222;2023-05-07T01:29:04;2.22;;;1.30;;
44428;SDS011;30134;47.866;-4.222;2023-05-07T01:31:31;1.90;;;1.17;;
44428;SDS011;30134;47.866;-4.222;2023-05-07T01:33:59;1.83;;;1.40;;
44428;SDS011;30134;47.866;-4.222;2023-05-07T01:36:27;1.73;;;1.30;;
44428;SDS011;30134;47.866;-4.222;2023-05-07T01:38:55;2.03;;;1.35;;
44428;SDS011;30134;47.866;-4.222;2023-05-07T01:41:23;1.58;;;1.48;;
44428;SDS011;30134;47.866;-4.222;2023-05-07T01:43:49;2.08;;;1.52;;
44428;SDS011;30134;47.866;-4.222;2023-05-07T01:46:18;2.05;;;1.38;;
44428;SDS011;30134;47.866;-4.222;2023-05-07T01:48:45;1.55;;;1.38;;
44428;SDS011;30134;47.866;-4.222;2023-05-07T01:51:11;2.22;;;1.52;;
44428;SDS011;30134;47.866;-4.222;2023-05-07T01:53:38;2.67;;;1.70;;
44428;SDS011;30134;47.866;-4.222;2023-05-07T01:56:05;1.90;;;1.50;;
44428;SDS011;30134;47.866;-4.222;2023-05-07T01:58:32;1.73;;;1.38;;
44428;SDS011;30134;47.866;-4.222;2023-05-07T02:00:59;2.05;;;1.63;;
44428;SDS011;30134;47.866;-4.222;2023-05-07T02:03:25;1.50;;;1.38;;
44428;SDS011;30134;47.866;-4.222;2023-05-07T02:05:51;1.45;;;1.27;;
44428;SDS011;30134;47.866;-4.222;2023-05-07T02:08:17;2.10;;;1.58;;
44428;SDS011;30134;47.866;-4.222;2023-05-07T02:10:43;1.95;;;1.35;;
44428;SDS011;30134;47.866;-4.222;2023-05-07T02:13:09;1.23;;;1.13;;
44428;SDS011;30134;47.866;-4.222;2023-05-07T02:15:35;2.58;;;1.30;;
44428;SDS011;30134;47.866;-4.222;2023-05-07T02:18:10;1.27;;;1.10;;
44428;SDS011;30134;47.866;-4.222;2023-05-07T02:20:35;2.05;;;1.40;;
44428;SDS011;30134;47.866;-4.222;2023-05-07T02:23:01;1.88;;;1.30;;
44428;SDS011;30134;47.866;-4.222;2023-05-07T02:25:28;1.48;;;1.38;;
44428;SDS011;30134;47.866;-4.222;2023-05-07T02:27:54;1.55;;;1.45;;
44428;SDS011;30134;47.866;-4.222;2023-05-07T02:30:20;1.83;;;1.42;;
44428;SDS011;30134;47.866;-4.222;2023-05-07T02:32:46;1.20;;;1.10;;
44428;SDS011;30134;47.866;-4.222;2023-05-07T02:35:13;1.60;;;1.40;;
44428;SDS011;30134;47.866;-4.222;2023-05-07T02:37:39;1.88;;;1.40;;
44428;SDS011;30134;47.866;-4.222;2023-05-07T02:40:05;1.40;;;1.30;;
44428;SDS011;30134;47.866;-4.222;2023-05-07T02:42:32;1.45;;;1.35;;
44428;SDS011;30134;47.866;-4.222;2023-05-07T02:44:58;1.60;;;1.30;;
44428;SDS011;30134;47.866;-4.222;2023-05-07T02:47:24;1.50;;;1.20;;
44428;SDS011;30134;47.866;-4.222;2023-05-07T02:49:53;1.48;;;1.10;;
44428;SDS011;30134;47.866;-4.222;2023-05-07T02:52:20;1.17;;;1.08;;
44428;SDS011;30134;47.866;-4.222;2023-05-07T02:54:53;1.45;;;1.30;;
44428;SDS011;30134;47.866;-4.222;2023-05-07T02:57:27;1.73;;;1.27;;
44428;SDS011;30134;47.866;-4.222;2023-05-07T02:59:53;1.45;;;1.35;;
44428;SDS011;30134;47.866;-4.222;2023-05-07T03:02:19;1.60;;;1.20;;
44428;SDS011;30134;47.866;-4.222;2023-05-07T03:04:45;1.30;;;1.20;;
44428;SDS011;30134;47.866;-4.222;2023-05-07T03:07:11;1.20;;;1.10;;
44428;SDS011;30134;47.866;-4.222;2023-05-07T03:09:37;3.55;;;1.23;;
44428;SDS011;30134;47.866;-4.222;2023-05-07T03:12:03;1.73;;;1.38;;
44428;SDS011;30134;47.866;-4.222;2023-05-07T03:14:29;1.67;;;1.55;;
44428;SDS011;30134;47.866;-4.222;2023-05-07T03:16:55;1.38;;;1.27;;
44428;SDS011;30134;47.866;-4.222;2023-05-07T03:19:24;1.55;;;1.10;;
44428;SDS011;30134;47.866;-4.222;2023-05-07T03:21:50;2.00;;;1.02;;
44428;SDS011;30134;47.866;-4.222;2023-05-07T03:24:16;1.25;;;1.13;;
44428;SDS011;30134;47.866;-4.222;2023-05-07T03:26:42;1.30;;;1.20;;
44428;SDS011;30134;47.866;-4.222;2023-05-07T03:29:08;1.73;;;1.23;;
44428;SDS011;30134;47.866;-4.222;2023-05-07T03:31:34;3.60;;;1.27;;
44428;SDS011;30134;47.866;-4.222;2023-05-07T03:34:00;1.48;;;1.10;;
44428;SDS011;30134;47.866;-4.222;2023-05-07T03:36:26;1.52;;;1.23;;
44428;SDS011;30134;47.866;-4.222;2023-05-07T03:38:52;1.58;;;1.30;;
44428;SDS011;30134;47.866;-4.222;2023-05-07T03:41:18;1.23;;;1.10;;
44428;SDS011;30134;47.866;-4.222;2023-05-07T03:43:45;1.45;;;1.00;;
44428;SDS011;30134;47.866;-4.222;2023-05-07T03:46:11;1.77;;;1.00;;
44428;SDS011;30134;47.866;-4.222;2023-05-07T03:48:37;1.30;;;1.20;;
44428;SDS011;30134;47.866;-4.222;2023-05-07T03:51:03;1.23;;;1.10;;
44428;SDS011;30134;47.866;-4.222;2023-05-07T03:53:29;1.65;;;1.20;;
44428;SDS011;30134;47.866;-4.222;2023-05-07T03:55:55;1.58;;;1.30;;
44428;SDS011;30134;47.866;-4.222;2023-05-07T03:58:21;1.17;;;0.90;;
44428;SDS011;30134;47.866;-4.222;2023-05-07T04:00:47;0.80;;;0.80;;
44428;SDS011;30134;47.866;-4.222;2023-05-07T04:03:13;2.13;;;1.15;;
44428;SDS011;30134;47.866;-4.222;2023-05-07T04:05:40;2.00;;;0.98;;
44428;SDS011;30134;47.866;-4.222;2023-05-07T04:08:06;1.08;;;0.95;;
44428;SDS011;30134;47.866;-4.222;2023-05-07T04:10:32;1.35;;;1.00;;
44428;SDS011;30134;47.866;-4.222;2023-05-07T04:12:58;1.27;;;1.10;;
44428;SDS011;30134;47.866;-4.222;2023-05-07T04:15:25;1.30;;;1.00;;
44428;SDS011;30134;47.866;-4.222;2023-05-07T04:17:51;0.80;;;0.80;;
44428;SDS011;30134;47.866;-4.222;2023-05-07T04:20:17;1.00;;;0.90;;
44428;SDS011;30134;47.866;-4.222;2023-05-07T04:22:43;1.20;;;1.08;;
44428;SDS011;30134;47.866;-4.222;2023-05-07T04:25:09;1.10;;;1.00;;
44428;SDS011;30134;47.866;-4.222;2023-05-07T04:27:35;1.45;;;1.05;;
44428;SDS011;30134;47.866;-4.222;2023-05-07T04:30:02;1.30;;;1.20;;
44428;SDS011;30134;47.866;-4.222;2023-05-07T04:32:29;1.20;;;0.98;;
44428;SDS011;30134;47.866;-4.222;2023-05-07T04:34:56;1.23;;;1.10;;
44428;SDS011;30134;47.866;-4.222;2023-05-07T04:37:22;2.47;;;1.40;;
44428;SDS011;30134;47.866;-4.222;2023-05-07T04:39:48;1.88;;;1.20;;
44428;SDS011;30134;47.866;-4.222;2023-05-07T04:42:15;1.20;;;1.10;;
44428;SDS011;30134;47.866;-4.222;2023-05-07T04:44:43;1.67;;;1.20;;
44428;SDS011;30134;47.866;-4.222;2023-05-07T04:47:12;1.10;;;1.00;;
44428;SDS011;30134;47.866;-4.222;2023-05-07T04:49:38;1.25;;;1.05;;
44428;SDS011;30134;47.866;-4.222;2023-05-07T04:52:04;2.60;;;0.90;;
44428;SDS011;30134;47.866;-4.222;2023-05-07T04:54:30;0.90;;;0.85;;
44428;SDS011;30134;47.866;-4.222;2023-05-07T04:56:56;1.27;;;1.17;;
44428;SDS011;30134;47.866;-4.222;2023-05-07T04:59:22;1.08;;;1.00;;
44428;SDS011;30134;47.866;-4.222;2023-05-07T05:01:48;1.05;;;0.95;;
44428;SDS011;30134;47.866;-4.222;2023-05-07T05:04:14;1.00;;;0.90;;
44428;SDS011;30134;47.866;-4.222;2023-05-07T05:06:40;1.13;;;0.93;;
44428;SDS011;30134;47.866;-4.222;2023-05-07T05:09:06;1.20;;;1.10;;
44428;SDS011;30134;47.866;-4.222;2023-05-07T05:11:32;1.17;;;1.00;;
44428;SDS011;30134;47.866;-4.222;2023-05-07T05:13:59;1.33;;;1.00;;
44428;SDS011;30134;47.866;-4.222;2023-05-07T05:16:25;1.13;;;1.00;;
44428;SDS011;30134;47.866;-4.222;2023-05-07T05:18:52;2.35;;;1.10;;
44428;SDS011;30134;47.866;-4.222;2023-05-07T05:21:19;1.02;;;1.00;;
44428;SDS011;30134;47.866;-4.222;2023-05-07T05:23:45;1.08;;;1.00;;
44428;SDS011;30134;47.866;-4.222;2023-05-07T05:26:12;1.05;;;0.95;;
44428;SDS011;30134;47.866;-4.222;2023-05-07T05:28:38;0.95;;;0.80;;
44428;SDS011;30134;47.866;-4.222;2023-05-07T05:31:04;1.67;;;0.88;;
44428;SDS011;30134;47.866;-4.222;2023-05-07T05:33:31;0.93;;;0.80;;
44428;SDS011;30134;47.866;-4.222;2023-05-07T05:35:57;1.02;;;1.00;;
44428;SDS011;30134;47.866;-4.222;2023-05-07T05:38:23;0.85;;;0.82;;
44428;SDS011;30134;47.866;-4.222;2023-05-07T05:40:49;1.13;;;0.90;;
44428;SDS011;30134;47.866;-4.222;2023-05-07T05:43:15;1.10;;;1.00;;
44428;SDS011;30134;47.866;-4.222;2023-05-07T05:45:41;1.17;;;1.08;;
44428;SDS011;30134;47.866;-4.222;2023-05-07T05:48:07;0.98;;;0.90;;
44428;SDS011;30134;47.866;-4.222;2023-05-07T05:50:33;1.27;;;1.00;;
44428;SDS011;30134;47.866;-4.222;2023-05-07T05:53:01;1.05;;;0.80;;
44428;SDS011;30134;47.866;-4.222;2023-05-07T05:55:27;0.90;;;0.80;;
44428;SDS011;30134;47.866;-4.222;2023-05-07T05:57:54;1.08;;;0.90;;
44428;SDS011;30134;47.866;-4.222;2023-05-07T06:00:21;1.00;;;0.90;;
44428;SDS011;30134;47.866;-4.222;2023-05-07T06:02:48;0.75;;;0.73;;
44428;SDS011;30134;47.866;-4.222;2023-05-07T06:05:14;1.00;;;0.90;;
44428;SDS011;30134;47.866;-4.222;2023-05-07T06:07:40;0.80;;;0.80;;
44428;SDS011;30134;47.866;-4.222;2023-05-07T06:10:06;0.60;;;0.60;;
44428;SDS011;30134;47.866;-4.222;2023-05-07T06:12:33;1.00;;;0.90;;
44428;SDS011;30134;47.866;-4.222;2023-05-07T06:14:59;1.13;;;0.95;;
44428;SDS011;30134;47.866;-4.222;2023-05-07T06:17:24;0.80;;;0.80;;
44428;SDS011;30134;47.866;-4.222;2023-05-07T06:19:51;1.20;;;1.00;;
44428;SDS011;30134;47.866;-4.222;2023-05-07T06:22:17;0.88;;;0.88;;
44428;SDS011;30134;47.866;-4.222;2023-05-07T06:24:43;1.00;;;0.95;;
44428;SDS011;30134;47.866;-4.222;2023-05-07T06:27:09;0.82;;;0.82;;
44428;SDS011;30134;47.866;-4.222;2023-05-07T06:29:35;0.80;;;0.80;;
44428;SDS011;30134;47.866;-4.222;2023-05-07T06:32:11;1.10;;;1.00;;
44428;SDS011;30134;47.866;-4.222;2023-05-07T06:34:38;0.60;;;0.60;;
44428;SDS011;30134;47.866;-4.222;2023-05-07T06:37:06;0.80;;;0.80;;
44428;SDS011;30134;47.866;-4.222;2023-05-07T06:39:32;1.50;;;1.02;;
44428;SDS011;30134;47.866;-4.222;2023-05-07T06:41:59;0.90;;;0.80;;
44428;SDS011;30134;47.866;-4.222;2023-05-07T06:44:29;0.80;;;0.80;;
44428;SDS011;30134;47.866;-4.222;2023-05-07T06:46:56;0.95;;;0.95;;
44428;SDS011;30134;47.866;-4.222;2023-05-07T06:49:22;0.82;;;0.82;;
44428;SDS011;30134;47.866;-4.222;2023-05-07T06:51:48;0.85;;;0.85;;
44428;SDS011;30134;47.866;-4.222;2023-05-07T06:54:14;0.90;;;0.90;;
44428;SDS011;30134;47.866;-4.222;2023-05-07T06:56:40;1.00;;;0.90;;
44428;SDS011;30134;47.866;-4.222;2023-05-07T06:59:07;1.02;;;0.90;;
44428;SDS011;30134;47.866;-4.222;2023-05-07T07:01:33;0.98;;;0.88;;
44428;SDS011;30134;47.866;-4.222;2023-05-07T07:03:59;0.70;;;0.70;;
44428;SDS011;30134;47.866;-4.222;2023-05-07T07:06:25;0.93;;;0.93;;
44428;SDS011;30134;47.866;-4.222;2023-05-07T07:08:51;0.98;;;0.88;;
44428;SDS011;30134;47.866;-4.222;2023-05-07T07:11:17;0.82;;;0.80;;
44428;SDS011;30134;47.866;-4.222;2023-05-07T07:13:44;1.00;;;0.90;;
44428;SDS011;30134;47.866;-4.222;2023-05-07T07:16:10;0.80;;;0.80;;
44428;SDS011;30134;47.866;-4.222;2023-05-07T07:18:36;0.80;;;0.80;;
44428;SDS011;30134;47.866;-4.222;2023-05-07T07:21:02;0.80;;;0.80;;
44428;SDS011;30134;47.866;-4.222;2023-05-07T07:23:28;1.30;;;1.00;;
44428;SDS011;30134;47.866;-4.222;2023-05-07T07:25:54;1.00;;;0.90;;
44428;SDS011;30134;47.866;-4.222;2023-05-07T07:28:20;0.80;;;0.70;;
44428;SDS011;30134;47.866;-4.222;2023-05-07T07:30:47;0.80;;;0.80;;
44428;SDS011;30134;47.866;-4.222;2023-05-07T07:33:13;0.90;;;0.90;;
44428;SDS011;30134;47.866;-4.222;2023-05-07T07:35:39;0.82;;;0.82;;
44428;SDS011;30134;47.866;-4.222;2023-05-07T07:38:05;1.15;;;0.82;;
44428;SDS011;30134;47.866;-4.222;2023-05-07T07:40:31;0.90;;;0.88;;
44428;SDS011;30134;47.866;-4.222;2023-05-07T07:43:02;0.90;;;0.90;;
44428;SDS011;30134;47.866;-4.222;2023-05-07T07:45:29;1.05;;;0.90;;
44428;SDS011;30134;47.866;-4.222;2023-05-07T07:47:55;1.33;;;0.80;;
44428;SDS011;30134;47.866;-4.222;2023-05-07T07:50:22;1.08;;;0.70;;
44428;SDS011;30134;47.866;-4.222;2023-05-07T07:52:48;0.85;;;0.80;;
44428;SDS011;30134;47.866;-4.222;2023-05-07T07:55:14;1.35;;;1.00;;
44428;SDS011;30134;47.866;-4.222;2023-05-07T07:57:46;1.42;;;0.73;;
44428;SDS011;30134;47.866;-4.222;2023-05-07T08:00:12;0.80;;;0.80;;
44428;SDS011;30134;47.866;-4.222;2023-05-07T08:02:38;0.88;;;0.80;;
44428;SDS011;30134;47.866;-4.222;2023-05-07T08:05:04;0.60;;;0.60;;
44428;SDS011;30134;47.866;-4.222;2023-05-07T08:07:31;0.82;;;0.70;;
44428;SDS011;30134;47.866;-4.222;2023-05-07T08:09:57;0.80;;;0.70;;
44428;SDS011;30134;47.866;-4.222;2023-05-07T08:12:23;0.65;;;0.65;;
44428;SDS011;30134;47.866;-4.222;2023-05-07T08:14:49;0.70;;;0.70;;
44428;SDS011;30134;47.866;-4.222;2023-05-07T08:17:15;0.70;;;0.70;;
44428;SDS011;30134;47.866;-4.222;2023-05-07T08:19:41;0.98;;;0.88;;
44428;SDS011;30134;47.866;-4.222;2023-05-07T08:22:08;0.73;;;0.73;;
44428;SDS011;30134;47.866;-4.222;2023-05-07T08:24:36;0.60;;;0.60;;
44428;SDS011;30134;47.866;-4.222;2023-05-07T08:27:02;0.68;;;0.65;;
44428;SDS011;30134;47.866;-4.222;2023-05-07T08:29:28;0.98;;;0.80;;
44428;SDS011;30134;47.866;-4.222;2023-05-07T08:31:54;0.60;;;0.60;;
44428;SDS011;30134;47.866;-4.222;2023-05-07T08:34:21;1.15;;;0.80;;
44428;SDS011;30134;47.866;-4.222;2023-05-07T08:36:47;0.68;;;0.68;;
44428;SDS011;30134;47.866;-4.222;2023-05-07T08:39:15;0.70;;;0.70;;
44428;SDS011;30134;47.866;-4.222;2023-05-07T08:41:44;0.70;;;0.70;;
44428;SDS011;30134;47.866;-4.222;2023-05-07T08:44:13;0.80;;;0.80;;
44428;SDS011;30134;47.866;-4.222;2023-05-07T08:46:41;0.70;;;0.70;;
44428;SDS011;30134;47.866;-4.222;2023-05-07T08:49:11;0.95;;;0.88;;
44428;SDS011;30134;47.866;-4.222;2023-05-07T08:51:37;0.80;;;0.80;;
44428;SDS011;30134;47.866;-4.222;2023-05-07T08:54:04;0.73;;;0.73;;
44428;SDS011;30134;47.866;-4.222;2023-05-07T08:56:30;0.63;;;0.63;;
44428;SDS011;30134;47.866;-4.222;2023-05-07T08:58:56;0.82;;;0.82;;
44428;SDS011;30134;47.866;-4.222;2023-05-07T09:01:23;0.70;;;0.70;;
44428;SDS011;30134;47.866;-4.222;2023-05-07T09:03:50;0.82;;;0.82;;
44428;SDS011;30134;47.866;-4.222;2023-05-07T09:06:17;0.70;;;0.70;;
44428;SDS011;30134;47.866;-4.222;2023-05-07T09:08:49;0.70;;;0.70;;
44428;SDS011;30134;47.866;-4.222;2023-05-07T09:11:19;0.80;;;0.80;;
44428;SDS011;30134;47.866;-4.222;2023-05-07T09:13:48;1.13;;;0.80;;
44428;SDS011;30134;47.866;-4.222;2023-05-07T09:16:19;1.10;;;0.80;;
44428;SDS011;30134;47.866;-4.222;2023-05-07T09:18:48;0.93;;;0.88;;
44428;SDS011;30134;47.866;-4.222;2023-05-07T09:21:17;0.80;;;0.80;;
44428;SDS011;30134;47.866;-4.222;2023-05-07T09:23:45;0.88;;;0.80;;
44428;SDS011;30134;47.866;-4.222;2023-05-07T09:26:11;2.42;;;1.08;;
44428;SDS011;30134;47.866;-4.222;2023-05-07T09:28:40;0.80;;;0.80;;
44428;SDS011;30134;47.866;-4.222;2023-05-07T09:31:07;0.88;;;0.88;;
44428;SDS011;30134;47.866;-4.222;2023-05-07T09:33:34;1.98;;;0.90;;
44428;SDS011;30134;47.866;-4.222;2023-05-07T09:36:04;2.78;;;1.20;;
44428;SDS011;30134;47.866;-4.222;2023-05-07T09:38:32;1.45;;;1.00;;
44428;SDS011;30134;47.866;-4.222;2023-05-07T09:41:03;2.72;;;1.23;;
44428;SDS011;30134;47.866;-4.222;2023-05-07T09:43:39;9.05;;;1.30;;
44428;SDS011;30134;47.866;-4.222;2023-05-07T09:46:11;3.28;;;1.13;;
44428;SDS011;30134;47.866;-4.222;2023-05-07T09:48:40;3.65;;;1.90;;
44428;SDS011;30134;47.866;-4.222;2023-05-07T09:51:11;5.20;;;1.40;;
44428;SDS011;30134;47.866;-4.222;2023-05-07T09:54:02;4.07;;;1.40;;
44428;SDS011;30134;47.866;-4.222;2023-05-07T09:56:29;2.53;;;1.13;;
44428;SDS011;30134;47.866;-4.222;2023-05-07T09:58:58;2.47;;;1.33;;
44428;SDS011;30134;47.866;-4.222;2023-05-07T10:01:25;1.80;;;1.20;;
44428;SDS011;30134;47.866;-4.222;2023-05-07T10:03:52;5.90;;;1.50;;
44428;SDS011;30134;47.866;-4.222;2023-05-07T10:06:19;2.58;;;1.35;;
44428;SDS011;30134;47.866;-4.222;2023-05-07T10:08:46;2.08;;;1.25;;
44428;SDS011;30134;47.866;-4.222;2023-05-07T10:11:13;3.70;;;1.25;;
44428;SDS011;30134;47.866;-4.222;2023-05-07T10:13:41;2.90;;;1.20;;
44428;SDS011;30134;47.866;-4.222;2023-05-07T10:16:08;4.28;;;1.35;;
44428;SDS011;30134;47.866;-4.222;2023-05-07T10:18:34;3.17;;;1.20;;
44428;SDS011;30134;47.866;-4.222;2023-05-07T10:21:08;2.22;;;1.35;;
44428;SDS011;30134;47.866;-4.222;2023-05-07T10:23:44;4.28;;;1.15;;
44428;SDS011;30134;47.866;-4.222;2023-05-07T10:26:14;3.70;;;1.30;;
44428;SDS011;30134;47.866;-4.222;2023-05-07T10:28:43;2.72;;;1.38;;
44428;SDS011;30134;47.866;-4.222;2023-05-07T10:34:02;5.05;;;1.30;;
44428;SDS011;30134;47.866;-4.222;2023-05-07T10:36:36;4.25;;;1.38;;
44428;SDS011;30134;47.866;-4.222;2023-05-07T10:39:05;3.40;;;1.40;;
44428;SDS011;30134;47.866;-4.222;2023-05-07T10:41:32;3.70;;;1.15;;
44428;SDS011;30134;47.866;-4.222;2023-05-07T10:43:58;4.57;;;1.30;;
44428;SDS011;30134;47.866;-4.222;2023-05-07T10:46:27;3.53;;;1.10;;
44428;SDS011;30134;47.866;-4.222;2023-05-07T10:51:29;3.53;;;1.40;;
44428;SDS011;30134;47.866;-4.222;2023-05-07T10:56:38;2.28;;;1.15;;
44428;SDS011;30134;47.866;-4.222;2023-05-07T10:59:51;2.85;;;1.13;;
44428;SDS011;30134;47.866;-4.222;2023-05-07T11:02:18;4.65;;;1.23;;
44428;SDS011;30134;47.866;-4.222;2023-05-07T11:05:20;4.38;;;1.60;;
44428;SDS011;30134;47.866;-4.222;2023-05-07T11:08:03;4.00;;;1.88;;
44428;SDS011;30134;47.866;-4.222;2023-05-07T11:10:49;2.40;;;1.10;;
44428;SDS011;30134;47.866;-4.222;2023-05-07T11:13:19;3.10;;;1.50;;
44428;SDS011;30134;47.866;-4.222;2023-05-07T11:16:23;3.95;;;1.95;;
44428;SDS011;30134;47.866;-4.222;2023-05-07T11:18:53;3.95;;;1.80;;
44428;SDS011;30134;47.866;-4.222;2023-05-07T11:24:01;4.45;;;2.17;;
44428;SDS011;30134;47.866;-4.222;2023-05-07T11:26:30;8.30;;;2.60;;
44428;SDS011;30134;47.866;-4.222;2023-05-07T11:29:15;8.35;;;2.70;;
44428;SDS011;30134;47.866;-4.222;2023-05-07T11:31:52;7.97;;;3.67;;
44428;SDS011;30134;47.866;-4.222;2023-05-07T11:34:23;8.40;;;3.17;;
44428;SDS011;30134;47.866;-4.222;2023-05-07T11:36:51;9.13;;;3.13;;
44428;SDS011;30134;47.866;-4.222;2023-05-07T11:39:30;8.57;;;3.63;;
44428;SDS011;30134;47.866;-4.222;2023-05-07T11:42:01;9.82;;;4.32;;
44428;SDS011;30134;47.866;-4.222;2023-05-07T11:44:42;8.85;;;3.92;;
44428;SDS011;30134;47.866;-4.222;2023-05-07T11:47:10;10.73;;;3.60;;
44428;SDS011;30134;47.866;-4.222;2023-05-07T11:49:36;10.23;;;3.90;;
44428;SDS011;30134;47.866;-4.222;2023-05-07T11:52:03;9.15;;;3.63;;
44428;SDS011;30134;47.866;-4.222;2023-05-07T11:54:35;8.70;;;3.92;;
44428;SDS011;30134;47.866;-4.222;2023-05-07T11:57:02;13.30;;;3.63;;
44428;SDS011;30134;47.866;-4.222;2023-05-07T11:59:28;8.57;;;3.42;;
44428;SDS011;30134;47.866;-4.222;2023-05-07T12:01:57;8.02;;;3.53;;
44428;SDS011;30134;47.866;-4.222;2023-05-07T12:06:55;9.75;;;3.95;;
44428;SDS011;30134;47.866;-4.222;2023-05-07T12:09:21;11.90;;;3.67;;
44428;SDS011;30134;47.866;-4.222;2023-05-07T12:11:47;6.68;;;3.10;;
44428;SDS011;30134;47.866;-4.222;2023-05-07T12:14:14;7.45;;;3.08;;
44428;SDS011;30134;47.866;-4.222;2023-05-07T12:16:43;5.38;;;2.80;;
44428;SDS011;30134;47.866;-4.222;2023-05-07T12:19:10;6.90;;;2.97;;
44428;SDS011;30134;47.866;-4.222;2023-05-07T12:21:40;8.20;;;3.00;;
44428;SDS011;30134;47.866;-4.222;2023-05-07T12:24:07;9.60;;;3.03;;
44428;SDS011;30134;47.866;-4.222;2023-05-07T12:26:37;7.75;;;2.33;;
44428;SDS011;30134;47.866;-4.222;2023-05-07T12:29:05;6.72;;;2.92;;
44428;SDS011;30134;47.866;-4.222;2023-05-07T12:31:32;8.00;;;2.72;;
44428;SDS011;30134;47.866;-4.222;2023-05-07T12:33:58;7.70;;;2.60;;
44428;SDS011;30134;47.866;-4.222;2023-05-07T12:36:24;7.53;;;2.72;;
44428;SDS011;30134;47.866;-4.222;2023-05-07T12:38:51;7.78;;;2.58;;
44428;SDS011;30134;47.866;-4.222;2023-05-07T12:41:17;6.25;;;2.45;;
44428;SDS011;30134;47.866;-4.222;2023-05-07T12:43:43;10.52;;;2.72;;
44428;SDS011;30134;47.866;-4.222;2023-05-07T12:46:11;7.75;;;2.60;;
44428;SDS011;30134;47.866;-4.222;2023-05-07T12:48:43;10.95;;;2.60;;
44428;SDS011;30134;47.866;-4.222;2023-05-07T12:51:13;6.68;;;2.28;;
44428;SDS011;30134;47.866;-4.222;2023-05-07T12:53:40;9.18;;;1.98;;
44428;SDS011;30134;47.866;-4.222;2023-05-07T12:56:08;3.80;;;1.80;;
44428;SDS011;30134;47.866;-4.222;2023-05-07T12:58:34;6.00;;;2.00;;
44428;SDS011;30134;47.866;-4.222;2023-05-07T13:01:03;7.95;;;2.25;;
44428;SDS011;30134;47.866;-4.222;2023-05-07T13:03:35;7.43;;;2.23;;
44428;SDS011;30134;47.866;-4.222;2023-05-07T13:06:07;4.75;;;2.28;;
44428;SDS011;30134;47.866;-4.222;2023-05-07T13:08:38;8.45;;;2.20;;
44428;SDS011;30134;47.866;-4.222;2023-05-07T13:11:08;4.45;;;1.55;;
44428;SDS011;30134;47.866;-4.222;2023-05-07T13:13:37;5.65;;;2.10;;
44428;SDS011;30134;47.866;-4.222;2023-05-07T13:16:05;6.00;;;1.85;;
44428;SDS011;30134;47.866;-4.222;2023-05-07T13:18:33;7.25;;;1.83;;
44428;SDS011;30134;47.866;-4.222;2023-05-07T13:21:00;5.25;;;1.70;;
44428;SDS011;30134;47.866;-4.222;2023-05-07T13:23:27;6.65;;;1.92;;
44428;SDS011;30134;47.866;-4.222;2023-05-07T13:25:53;6.22;;;1.90;;
44428;SDS011;30134;47.866;-4.222;2023-05-07T13:28:20;7.25;;;1.90;;
44428;SDS011;30134;47.866;-4.222;2023-05-07T13:30:47;4.95;;;1.52;;
44428;SDS011;30134;47.866;-4.222;2023-05-07T13:33:14;5.55;;;1.70;;
44428;SDS011;30134;47.866;-4.222;2023-05-07T13:35:47;6.68;;;1.77;;
44428;SDS011;30134;47.866;-4.222;2023-05-07T13:38:13;5.78;;;1.77;;
44428;SDS011;30134;47.866;-4.222;2023-05-07T13:40:40;7.72;;;1.70;;
44428;SDS011;30134;47.866;-4.222;2023-05-07T13:43:07;3.63;;;1.27;;
44428;SDS011;30134;47.866;-4.222;2023-05-07T13:45:33;4.90;;;1.30;;
44428;SDS011;30134;47.866;-4.222;2023-05-07T13:47:59;4.20;;;1.60;;
44428;SDS011;30134;47.866;-4.222;2023-05-07T13:50:25;3.22;;;1.50;;
44428;SDS011;30134;47.866;-4.222;2023-05-07T13:52:55;5.20;;;1.70;;
44428;SDS011;30134;47.866;-4.222;2023-05-07T13:55:21;5.00;;;1.60;;
44428;SDS011;30134;47.866;-4.222;2023-05-07T13:57:54;5.57;;;1.75;;
44428;SDS011;30134;47.866;-4.222;2023-05-07T14:00:26;3.10;;;1.33;;
44428;SDS011;30134;47.866;-4.222;2023-05-07T14:02:53;4.18;;;1.65;;
44428;SDS011;30134;47.866;-4.222;2023-05-07T14:05:20;2.92;;;1.20;;
44428;SDS011;30134;47.866;-4.222;2023-05-07T14:07:54;4.05;;;1.38;;
44428;SDS011;30134;47.866;-4.222;2023-05-07T14:12:47;3.47;;;1.45;;
44428;SDS011;30134;47.866;-4.222;2023-05-07T14:15:13;4.43;;;1.00;;
44428;SDS011;30134;47.866;-4.222;2023-05-07T14:17:41;4.70;;;1.25;;
44428;SDS011;30134;47.866;-4.222;2023-05-07T14:20:08;5.20;;;1.25;;
44428;SDS011;30134;47.866;-4.222;2023-05-07T14:22:35;3.28;;;1.25;;
44428;SDS011;30134;47.866;-4.222;2023-05-07T14:25:02;3.45;;;1.60;;
44428;SDS011;30134;47.866;-4.222;2023-05-07T14:27:28;4.20;;;1.33;;
44428;SDS011;30134;47.866;-4.222;2023-05-07T14:29:54;3.28;;;1.17;;
44428;SDS011;30134;47.866;-4.222;2023-05-07T14:32:21;3.05;;;1.27;;
44428;SDS011;30134;47.866;-4.222;2023-05-07T14:34:48;4.38;;;1.27;;
44428;SDS011;30134;47.866;-4.222;2023-05-07T14:37:15;4.50;;;1.38;;
44428;SDS011;30134;47.866;-4.222;2023-05-07T14:39:41;5.00;;;1.33;;
44428;SDS011;30134;47.866;-4.222;2023-05-07T14:42:07;3.33;;;1.00;;
44428;SDS011;30134;47.866;-4.222;2023-05-07T14:44:36;5.45;;;1.30;;
44428;SDS011;30134;47.866;-4.222;2023-05-07T14:47:02;4.25;;;1.40;;
44428;SDS011;30134;47.866;-4.222;2023-05-07T14:49:28;2.97;;;1.20;;
44428;SDS011;30134;47.866;-4.222;2023-05-07T14:51:56;4.32;;;1.50;;